sensor_id;sensor_type;location;lat;lon;timestamp;temperature;humidity
40253;DHT22;25972;51.854;4.534;2023-03-05T00:00:15;4.10;99.90
40253;DHT22;25972;51.854;4.534;2023-03-05T00:02:41;4.00;99.90
40253;DHT22;25972;51.854;4.534;2023-03-05T00:05:08;4.00;99.90
40253;DHT22;25972;51.854;4.534;2023-03-05T00:07:34;3.90;99.90
40253;DHT22;25972;51.854;4.534;2023-03-05T00:10:00;3.90;99.90
40253;DHT22;25972;51.854;4.534;2023-03-05T00:12:26;3.80;99.90
40253;DHT22;25972;51.854;4.534;2023-03-05T00:14:52;3.80;99.90
40253;DHT22;25972;51.854;4.534;2023-03-05T00:17:18;3.70;99.90
40253;DHT22;25972;51.854;4.534;2023-03-05T00:19:44;3.70;99.90
40253;DHT22;25972;51.854;4.534;2023-03-05T00:22:10;3.60;99.90
40253;DHT22;25972;51.854;4.534;2023-03-05T00:24:35;3.50;99.90
40253;DHT22;25972;51.854;4.534;2023-03-05T00:27:02;3.50;99.90
40253;DHT22;25972;51.854;4.534;2023-03-05T00:29:28;3.50;99.90
40253;DHT22;25972;51.854;4.534;2023-03-05T00:31:54;3.40;99.90
40253;DHT22;25972;51.854;4.534;2023-03-05T00:34:20;3.40;99.90
40253;DHT22;25972;51.854;4.534;2023-03-05T00:36:50;3.40;99.90
40253;DHT22;25972;51.854;4.534;2023-03-05T00:39:18;3.40;99.90
40253;DHT22;25972;51.854;4.534;2023-03-05T00:41:44;3.30;99.90
40253;DHT22;25972;51.854;4.534;2023-03-05T00:44:10;3.30;99.90
40253;DHT22;25972;51.854;4.534;2023-03-05T00:46:36;3.20;99.90
40253;DHT22;25972;51.854;4.534;2023-03-05T00:49:03;3.20;99.90
40253;DHT22;25972;51.854;4.534;2023-03-05T00:51:29;3.20;99.90
40253;DHT22;25972;51.854;4.534;2023-03-05T00:53:55;3.10;99.90
40253;DHT22;25972;51.854;4.534;2023-03-05T00:56:21;3.10;99.90
40253;DHT22;25972;51.854;4.534;2023-03-05T00:58:47;3.10;99.90
40253;DHT22;25972;51.854;4.534;2023-03-05T01:01:13;3.10;99.90
40253;DHT22;25972;51.854;4.534;2023-03-05T01:03:39;3.10;99.90
40253;DHT22;25972;51.854;4.534;2023-03-05T01:06:07;3.20;99.90
40253;DHT22;25972;51.854;4.534;2023-03-05T01:08:34;3.20;99.90
40253;DHT22;25972;51.854;4.534;2023-03-05T01:11:00;3.20;99.90
40253;DHT22;25972;51.854;4.534;2023-03-05T01:13:26;3.30;99.90
40253;DHT22;25972;51.854;4.534;2023-03-05T01:15:52;3.30;99.90
40253;DHT22;25972;51.854;4.534;2023-03-05T01:18:18;3.30;99.90
40253;DHT22;25972;51.854;4.534;2023-03-05T01:20:45;3.30;99.90
40253;DHT22;25972;51.854;4.534;2023-03-05T01:23:11;3.30;99.90
40253;DHT22;25972;51.854;4.534;2023-03-05T01:25:38;3.40;99.90
40253;DHT22;25972;51.854;4.534;2023-03-05T01:28:04;3.40;99.90
40253;DHT22;25972;51.854;4.534;2023-03-05T01:30:31;3.50;99.90
40253;DHT22;25972;51.854;4.534;2023-03-05T01:32:57;3.50;99.90
40253;DHT22;25972;51.854;4.534;2023-03-05T01:35:27;3.60;99.90
40253;DHT22;25972;51.854;4.534;2023-03-05T01:37:59;3.60;99.90
40253;DHT22;25972;51.854;4.534;2023-03-05T01:40:38;3.60;99.90
40253;DHT22;25972;51.854;4.534;2023-03-05T01:45:38;3.70;99.90
40253;DHT22;25972;51.854;4.534;2023-03-05T01:48:04;3.70;99.90
40253;DHT22;25972;51.854;4.534;2023-03-05T01:50:32;3.70;99.90
40253;DHT22;25972;51.854;4.534;2023-03-05T01:53:01;3.70;99.90
40253;DHT22;25972;51.854;4.534;2023-03-05T01:55:30;3.80;99.90
40253;DHT22;25972;51.854;4.534;2023-03-05T01:58:03;3.80;99.90
40253;DHT22;25972;51.854;4.534;2023-03-05T02:00:34;3.80;99.90
40253;DHT22;25972;51.854;4.534;2023-03-05T02:03:06;3.80;99.90
40253;DHT22;25972;51.854;4.534;2023-03-05T02:05:35;3.80;99.90
40253;DHT22;25972;51.854;4.534;2023-03-05T02:08:07;3.90;99.90
40253;DHT22;25972;51.854;4.534;2023-03-05T02:10:36;3.90;99.90
40253;DHT22;25972;51.854;4.534;2023-03-05T02:13:09;3.90;99.90
40253;DHT22;25972;51.854;4.534;2023-03-05T02:15:35;3.90;99.90
40253;DHT22;25972;51.854;4.534;2023-03-05T02:18:03;4.00;99.90
40253;DHT22;25972;51.854;4.534;2023-03-05T02:20:41;3.90;99.90
40253;DHT22;25972;51.854;4.534;2023-03-05T02:23:07;4.00;99.90
40253;DHT22;25972;51.854;4.534;2023-03-05T02:25:34;3.90;99.90
40253;DHT22;25972;51.854;4.534;2023-03-05T02:30:43;4.00;99.90
40253;DHT22;25972;51.854;4.534;2023-03-05T02:33:09;4.00;99.90
40253;DHT22;25972;51.854;4.534;2023-03-05T02:35:36;4.00;99.90
40253;DHT22;25972;51.854;4.534;2023-03-05T02:38:02;4.00;99.90
40253;DHT22;25972;51.854;4.534;2023-03-05T02:40:28;4.00;99.90
40253;DHT22;25972;51.854;4.534;2023-03-05T02:42:54;4.00;99.90
40253;DHT22;25972;51.854;4.534;2023-03-05T02:45:20;4.00;99.90
40253;DHT22;25972;51.854;4.534;2023-03-05T02:47:46;3.90;99.90
40253;DHT22;25972;51.854;4.534;2023-03-05T02:50:12;3.90;99.90
40253;DHT22;25972;51.854;4.534;2023-03-05T02:52:38;3.80;99.90
40253;DHT22;25972;51.854;4.534;2023-03-05T02:55:09;3.80;99.90
40253;DHT22;25972;51.854;4.534;2023-03-05T02:57:36;3.70;99.90
40253;DHT22;25972;51.854;4.534;2023-03-05T03:00:04;3.70;99.90
40253;DHT22;25972;51.854;4.534;2023-03-05T03:02:30;3.70;99.90
40253;DHT22;25972;51.854;4.534;2023-03-05T03:04:56;3.70;99.90
40253;DHT22;25972;51.854;4.534;2023-03-05T03:07:22;3.70;99.90
40253;DHT22;25972;51.854;4.534;2023-03-05T03:09:48;3.70;99.90
40253;DHT22;25972;51.854;4.534;2023-03-05T03:12:14;3.70;99.90
40253;DHT22;25972;51.854;4.534;2023-03-05T03:14:40;3.80;99.90
40253;DHT22;25972;51.854;4.534;2023-03-05T03:17:09;3.80;99.90
40253;DHT22;25972;51.854;4.534;2023-03-05T03:19:36;3.80;99.90
40253;DHT22;25972;51.854;4.534;2023-03-05T03:22:12;3.90;99.90
40253;DHT22;25972;51.854;4.534;2023-03-05T03:24:43;3.90;99.90
40253;DHT22;25972;51.854;4.534;2023-03-05T03:27:13;3.90;99.90
40253;DHT22;25972;51.854;4.534;2023-03-05T03:29:39;3.90;99.90
40253;DHT22;25972;51.854;4.534;2023-03-05T03:32:07;4.00;99.90
40253;DHT22;25972;51.854;4.534;2023-03-05T03:34:33;4.00;99.90
40253;DHT22;25972;51.854;4.534;2023-03-05T03:36:58;3.90;99.90
40253;DHT22;25972;51.854;4.534;2023-03-05T03:39:24;3.90;99.90
40253;DHT22;25972;51.854;4.534;2023-03-05T03:41:51;3.90;99.90
40253;DHT22;25972;51.854;4.534;2023-03-05T03:44:19;4.00;99.90
40253;DHT22;25972;51.854;4.534;2023-03-05T03:46:46;3.90;99.90
40253;DHT22;25972;51.854;4.534;2023-03-05T03:49:15;3.90;99.90
40253;DHT22;25972;51.854;4.534;2023-03-05T03:51:41;3.90;99.90
40253;DHT22;25972;51.854;4.534;2023-03-05T03:54:07;3.90;99.90
40253;DHT22;25972;51.854;4.534;2023-03-05T03:56:33;3.90;99.90
40253;DHT22;25972;51.854;4.534;2023-03-05T03:58:58;3.80;99.90
40253;DHT22;25972;51.854;4.534;2023-03-05T04:01:50;3.80;99.90
40253;DHT22;25972;51.854;4.534;2023-03-05T04:04:22;3.80;99.90
40253;DHT22;25972;51.854;4.534;2023-03-05T04:06:51;3.90;99.90
40253;DHT22;25972;51.854;4.534;2023-03-05T04:09:24;3.80;99.90
40253;DHT22;25972;51.854;4.534;2023-03-05T04:11:49;3.80;99.90
40253;DHT22;25972;51.854;4.534;2023-03-05T04:14:15;3.80;99.90
40253;DHT22;25972;51.854;4.534;2023-03-05T04:16:41;3.80;99.90
40253;DHT22;25972;51.854;4.534;2023-03-05T04:19:07;3.80;99.90
40253;DHT22;25972;51.854;4.534;2023-03-05T04:21:33;3.80;99.90
40253;DHT22;25972;51.854;4.534;2023-03-05T04:23:58;3.80;99.90
40253;DHT22;25972;51.854;4.534;2023-03-05T04:26:24;3.90;99.90
40253;DHT22;25972;51.854;4.534;2023-03-05T04:28:50;3.90;99.90
40253;DHT22;25972;51.854;4.534;2023-03-05T04:31:16;4.00;99.90
40253;DHT22;25972;51.854;4.534;2023-03-05T04:33:42;4.00;99.90
40253;DHT22;25972;51.854;4.534;2023-03-05T04:36:08;4.00;99.90
40253;DHT22;25972;51.854;4.534;2023-03-05T04:38:33;4.00;99.90
40253;DHT22;25972;51.854;4.534;2023-03-05T04:40:59;4.00;99.90
40253;DHT22;25972;51.854;4.534;2023-03-05T04:43:25;4.00;99.90
40253;DHT22;25972;51.854;4.534;2023-03-05T04:45:51;4.00;99.90
40253;DHT22;25972;51.854;4.534;2023-03-05T04:48:17;4.00;99.90
40253;DHT22;25972;51.854;4.534;2023-03-05T04:50:43;4.00;99.90
40253;DHT22;25972;51.854;4.534;2023-03-05T04:53:09;3.90;99.90
40253;DHT22;25972;51.854;4.534;2023-03-05T04:55:35;3.90;99.90
40253;DHT22;25972;51.854;4.534;2023-03-05T04:58:00;3.80;99.90
40253;DHT22;25972;51.854;4.534;2023-03-05T05:00:26;3.70;99.90
40253;DHT22;25972;51.854;4.534;2023-03-05T05:02:52;3.70;99.90
40253;DHT22;25972;51.854;4.534;2023-03-05T05:05:21;3.60;99.90
40253;DHT22;25972;51.854;4.534;2023-03-05T05:07:47;3.60;99.90
40253;DHT22;25972;51.854;4.534;2023-03-05T05:10:13;3.50;99.90
40253;DHT22;25972;51.854;4.534;2023-03-05T05:12:39;3.50;99.90
40253;DHT22;25972;51.854;4.534;2023-03-05T05:15:06;3.50;99.90
40253;DHT22;25972;51.854;4.534;2023-03-05T05:17:33;3.50;99.90
40253;DHT22;25972;51.854;4.534;2023-03-05T05:19:59;3.60;99.90
40253;DHT22;25972;51.854;4.534;2023-03-05T05:22:27;3.50;99.90
40253;DHT22;25972;51.854;4.534;2023-03-05T05:24:53;3.50;99.90
40253;DHT22;25972;51.854;4.534;2023-03-05T05:27:21;3.50;99.90
40253;DHT22;25972;51.854;4.534;2023-03-05T05:29:47;3.40;99.90
40253;DHT22;25972;51.854;4.534;2023-03-05T05:32:21;3.40;99.90
40253;DHT22;25972;51.854;4.534;2023-03-05T05:34:58;3.40;99.90
40253;DHT22;25972;51.854;4.534;2023-03-05T05:37:24;3.30;99.90
40253;DHT22;25972;51.854;4.534;2023-03-05T05:39:50;3.30;99.90
40253;DHT22;25972;51.854;4.534;2023-03-05T05:42:18;3.30;99.90
40253;DHT22;25972;51.854;4.534;2023-03-05T05:44:44;3.30;99.90
40253;DHT22;25972;51.854;4.534;2023-03-05T05:47:21;3.20;99.90
40253;DHT22;25972;51.854;4.534;2023-03-05T05:49:47;3.20;99.90
40253;DHT22;25972;51.854;4.534;2023-03-05T05:52:15;3.10;99.90
40253;DHT22;25972;51.854;4.534;2023-03-05T05:54:52;3.10;99.90
40253;DHT22;25972;51.854;4.534;2023-03-05T05:57:22;3.10;99.90
40253;DHT22;25972;51.854;4.534;2023-03-05T05:59:57;3.00;99.90
40253;DHT22;25972;51.854;4.534;2023-03-05T06:02:46;3.00;99.90
40253;DHT22;25972;51.854;4.534;2023-03-05T06:05:18;2.90;99.90
40253;DHT22;25972;51.854;4.534;2023-03-05T06:07:49;2.90;99.90
40253;DHT22;25972;51.854;4.534;2023-03-05T06:10:17;2.90;99.90
40253;DHT22;25972;51.854;4.534;2023-03-05T06:12:51;2.90;99.90
40253;DHT22;25972;51.854;4.534;2023-03-05T06:15:19;2.80;99.90
40253;DHT22;25972;51.854;4.534;2023-03-05T06:17:48;2.80;99.90
40253;DHT22;25972;51.854;4.534;2023-03-05T06:20:37;2.80;99.90
40253;DHT22;25972;51.854;4.534;2023-03-05T06:23:10;2.80;99.90
40253;DHT22;25972;51.854;4.534;2023-03-05T06:25:41;2.80;99.90
40253;DHT22;25972;51.854;4.534;2023-03-05T06:28:15;2.80;99.90
40253;DHT22;25972;51.854;4.534;2023-03-05T06:30:46;2.80;99.90
40253;DHT22;25972;51.854;4.534;2023-03-05T06:33:18;2.80;99.90
40253;DHT22;25972;51.854;4.534;2023-03-05T06:35:51;2.80;99.90
40253;DHT22;25972;51.854;4.534;2023-03-05T06:38:23;2.80;99.90
40253;DHT22;25972;51.854;4.534;2023-03-05T06:40:50;2.90;99.90
40253;DHT22;25972;51.854;4.534;2023-03-05T06:43:22;2.90;99.90
40253;DHT22;25972;51.854;4.534;2023-03-05T06:46:25;3.00;99.90
40253;DHT22;25972;51.854;4.534;2023-03-05T06:49:00;3.00;99.90
40253;DHT22;25972;51.854;4.534;2023-03-05T06:51:34;3.00;99.90
40253;DHT22;25972;51.854;4.534;2023-03-05T06:54:11;3.10;99.90
40253;DHT22;25972;51.854;4.534;2023-03-05T06:56:39;3.10;99.90
40253;DHT22;25972;51.854;4.534;2023-03-05T06:59:12;3.30;99.90
40253;DHT22;25972;51.854;4.534;2023-03-05T07:02:16;3.30;99.90
40253;DHT22;25972;51.854;4.534;2023-03-05T07:05:06;3.30;99.90
40253;DHT22;25972;51.854;4.534;2023-03-05T07:10:45;3.40;99.90
40253;DHT22;25972;51.854;4.534;2023-03-05T07:13:11;3.50;99.90
40253;DHT22;25972;51.854;4.534;2023-03-05T07:15:40;3.60;99.90
40253;DHT22;25972;51.854;4.534;2023-03-05T07:18:06;3.70;99.90
40253;DHT22;25972;51.854;4.534;2023-03-05T07:20:36;3.80;99.90
40253;DHT22;25972;51.854;4.534;2023-03-05T07:23:02;3.90;99.90
40253;DHT22;25972;51.854;4.534;2023-03-05T07:25:28;3.90;99.90
40253;DHT22;25972;51.854;4.534;2023-03-05T07:27:56;4.10;99.90
40253;DHT22;25972;51.854;4.534;2023-03-05T07:30:27;4.20;99.90
40253;DHT22;25972;51.854;4.534;2023-03-05T07:32:54;4.30;99.90
40253;DHT22;25972;51.854;4.534;2023-03-05T07:35:23;4.40;99.90
40253;DHT22;25972;51.854;4.534;2023-03-05T07:37:49;4.50;99.90
40253;DHT22;25972;51.854;4.534;2023-03-05T07:40:16;4.60;99.90
40253;DHT22;25972;51.854;4.534;2023-03-05T07:42:42;4.60;99.90
40253;DHT22;25972;51.854;4.534;2023-03-05T07:45:14;4.70;99.90
40253;DHT22;25972;51.854;4.534;2023-03-05T07:47:40;4.70;99.90
40253;DHT22;25972;51.854;4.534;2023-03-05T07:50:06;4.80;99.90
40253;DHT22;25972;51.854;4.534;2023-03-05T07:52:32;4.80;99.90
40253;DHT22;25972;51.854;4.534;2023-03-05T07:54:58;4.90;99.90
40253;DHT22;25972;51.854;4.534;2023-03-05T07:57:24;5.00;99.90
40253;DHT22;25972;51.854;4.534;2023-03-05T07:59:50;5.00;99.90
40253;DHT22;25972;51.854;4.534;2023-03-05T08:02:15;5.20;99.90
40253;DHT22;25972;51.854;4.534;2023-03-05T08:04:49;5.30;99.90
40253;DHT22;25972;51.854;4.534;2023-03-05T08:07:24;5.50;99.90
40253;DHT22;25972;51.854;4.534;2023-03-05T08:09:50;5.80;99.90
40253;DHT22;25972;51.854;4.534;2023-03-05T08:12:16;5.80;99.90
40253;DHT22;25972;51.854;4.534;2023-03-05T08:14:42;5.90;99.90
40253;DHT22;25972;51.854;4.534;2023-03-05T08:17:08;5.80;99.90
40253;DHT22;25972;51.854;4.534;2023-03-05T08:19:34;5.70;99.90
40253;DHT22;25972;51.854;4.534;2023-03-05T08:21:59;5.50;99.90
40253;DHT22;25972;51.854;4.534;2023-03-05T08:24:25;5.40;99.90
40253;DHT22;25972;51.854;4.534;2023-03-05T08:26:57;5.40;99.90
40253;DHT22;25972;51.854;4.534;2023-03-05T08:29:23;5.40;99.90
40253;DHT22;25972;51.854;4.534;2023-03-05T08:31:50;5.40;99.90
40253;DHT22;25972;51.854;4.534;2023-03-05T08:34:22;5.40;99.90
40253;DHT22;25972;51.854;4.534;2023-03-05T08:36:48;5.30;99.90
40253;DHT22;25972;51.854;4.534;2023-03-05T08:39:17;5.20;99.90
40253;DHT22;25972;51.854;4.534;2023-03-05T08:41:43;5.30;99.90
40253;DHT22;25972;51.854;4.534;2023-03-05T08:44:09;5.30;99.90
40253;DHT22;25972;51.854;4.534;2023-03-05T08:46:38;5.30;99.90
40253;DHT22;25972;51.854;4.534;2023-03-05T08:49:04;5.40;99.90
40253;DHT22;25972;51.854;4.534;2023-03-05T08:51:32;5.40;99.90
40253;DHT22;25972;51.854;4.534;2023-03-05T08:53:58;5.40;99.90
40253;DHT22;25972;51.854;4.534;2023-03-05T08:56:25;5.40;99.90
40253;DHT22;25972;51.854;4.534;2023-03-05T08:58:53;5.50;99.90
40253;DHT22;25972;51.854;4.534;2023-03-05T09:01:19;5.60;99.90
40253;DHT22;25972;51.854;4.534;2023-03-05T09:03:45;5.70;99.90
40253;DHT22;25972;51.854;4.534;2023-03-05T09:06:11;5.70;99.90
40253;DHT22;25972;51.854;4.534;2023-03-05T09:08:37;5.90;99.90
40253;DHT22;25972;51.854;4.534;2023-03-05T09:11:05;6.00;99.90
40253;DHT22;25972;51.854;4.534;2023-03-05T09:13:32;6.20;99.90
40253;DHT22;25972;51.854;4.534;2023-03-05T09:16:02;6.30;99.90
40253;DHT22;25972;51.854;4.534;2023-03-05T09:18:29;6.40;99.90
40253;DHT22;25972;51.854;4.534;2023-03-05T09:20:55;6.50;99.90
40253;DHT22;25972;51.854;4.534;2023-03-05T09:23:22;6.50;99.90
40253;DHT22;25972;51.854;4.534;2023-03-05T09:25:48;6.60;99.90
40253;DHT22;25972;51.854;4.534;2023-03-05T09:28:14;6.70;99.90
40253;DHT22;25972;51.854;4.534;2023-03-05T09:30:40;6.80;99.90
40253;DHT22;25972;51.854;4.534;2023-03-05T09:33:06;7.00;99.90
40253;DHT22;25972;51.854;4.534;2023-03-05T09:35:37;7.00;99.90
40253;DHT22;25972;51.854;4.534;2023-03-05T09:38:03;7.10;99.90
40253;DHT22;25972;51.854;4.534;2023-03-05T09:41:00;7.20;99.90
40253;DHT22;25972;51.854;4.534;2023-03-05T09:46:30;7.20;99.90
40253;DHT22;25972;51.854;4.534;2023-03-05T09:51:35;6.90;99.90
40253;DHT22;25972;51.854;4.534;2023-03-05T09:54:25;6.80;99.90
40253;DHT22;25972;51.854;4.534;2023-03-05T09:56:58;6.70;99.90
40253;DHT22;25972;51.854;4.534;2023-03-05T10:01:52;6.30;99.90
40253;DHT22;25972;51.854;4.534;2023-03-05T10:04:23;6.20;99.90
40253;DHT22;25972;51.854;4.534;2023-03-05T10:06:58;6.10;99.90
40253;DHT22;25972;51.854;4.534;2023-03-05T10:09:41;6.10;99.90
40253;DHT22;25972;51.854;4.534;2023-03-05T10:12:19;6.10;99.90
40253;DHT22;25972;51.854;4.534;2023-03-05T10:14:49;6.10;99.90
40253;DHT22;25972;51.854;4.534;2023-03-05T10:25:46;6.50;99.90
40253;DHT22;25972;51.854;4.534;2023-03-05T10:28:28;6.70;99.90
40253;DHT22;25972;51.854;4.534;2023-03-05T10:31:32;6.90;99.90
40253;DHT22;25972;51.854;4.534;2023-03-05T10:45:45;7.70;99.90
40253;DHT22;25972;51.854;4.534;2023-03-05T10:48:28;7.80;99.90
40253;DHT22;25972;51.854;4.534;2023-03-05T10:53:56;8.10;99.90
40253;DHT22;25972;51.854;4.534;2023-03-05T10:56:25;8.20;99.90
40253;DHT22;25972;51.854;4.534;2023-03-05T10:58:51;8.20;99.90
40253;DHT22;25972;51.854;4.534;2023-03-05T11:01:18;8.30;99.90
40253;DHT22;25972;51.854;4.534;2023-03-05T11:04:25;8.30;99.90
40253;DHT22;25972;51.854;4.534;2023-03-05T11:06:51;8.30;99.90
40253;DHT22;25972;51.854;4.534;2023-03-05T11:09:19;8.40;99.90
40253;DHT22;25972;51.854;4.534;2023-03-05T11:14:31;8.60;99.90
40253;DHT22;25972;51.854;4.534;2023-03-05T11:17:01;8.70;99.90
40253;DHT22;25972;51.854;4.534;2023-03-05T11:22:14;8.40;99.90
40253;DHT22;25972;51.854;4.534;2023-03-05T11:24:41;8.50;99.90
40253;DHT22;25972;51.854;4.534;2023-03-05T11:27:36;8.40;99.90
40253;DHT22;25972;51.854;4.534;2023-03-05T11:30:21;8.70;99.90
40253;DHT22;25972;51.854;4.534;2023-03-05T11:32:49;8.70;99.90
40253;DHT22;25972;51.854;4.534;2023-03-05T11:35:42;8.80;99.90
40253;DHT22;25972;51.854;4.534;2023-03-05T11:38:36;8.90;99.90
40253;DHT22;25972;51.854;4.534;2023-03-05T11:41:08;8.90;99.90
40253;DHT22;25972;51.854;4.534;2023-03-05T11:43:35;8.90;99.90
40253;DHT22;25972;51.854;4.534;2023-03-05T11:46:03;8.80;99.90
40253;DHT22;25972;51.854;4.534;2023-03-05T11:48:40;8.90;99.90
40253;DHT22;25972;51.854;4.534;2023-03-05T11:51:18;8.90;99.90
40253;DHT22;25972;51.854;4.534;2023-03-05T11:53:49;8.90;99.90
40253;DHT22;25972;51.854;4.534;2023-03-05T11:56:20;9.00;99.90
40253;DHT22;25972;51.854;4.534;2023-03-05T12:01:56;9.10;99.90
40253;DHT22;25972;51.854;4.534;2023-03-05T12:04:22;9.10;99.90
40253;DHT22;25972;51.854;4.534;2023-03-05T12:06:59;9.00;99.90
40253;DHT22;25972;51.854;4.534;2023-03-05T12:09:41;9.00;99.90
40253;DHT22;25972;51.854;4.534;2023-03-05T12:14:59;8.70;99.90
40253;DHT22;25972;51.854;4.534;2023-03-05T12:17:43;8.70;99.90
40253;DHT22;25972;51.854;4.534;2023-03-05T12:20:26;8.60;99.90
40253;DHT22;25972;51.854;4.534;2023-03-05T12:22:58;8.60;99.90
40253;DHT22;25972;51.854;4.534;2023-03-05T12:25:33;8.50;99.90
40253;DHT22;25972;51.854;4.534;2023-03-05T12:28:01;8.40;99.90
40253;DHT22;25972;51.854;4.534;2023-03-05T12:33:03;8.40;99.90
40253;DHT22;25972;51.854;4.534;2023-03-05T12:35:34;8.40;99.90
40253;DHT22;25972;51.854;4.534;2023-03-05T12:38:48;8.40;99.90
40253;DHT22;25972;51.854;4.534;2023-03-05T12:40:48;8.30;99.90
40253;DHT22;25972;51.854;4.534;2023-03-05T12:46:21;8.30;99.90
40253;DHT22;25972;51.854;4.534;2023-03-05T12:48:47;8.20;99.90
40253;DHT22;25972;51.854;4.534;2023-03-05T12:51:30;8.20;99.90
40253;DHT22;25972;51.854;4.534;2023-03-05T12:54:20;8.30;99.90
40253;DHT22;25972;51.854;4.534;2023-03-05T12:56:44;8.30;99.90
40253;DHT22;25972;51.854;4.534;2023-03-05T12:59:10;8.40;99.90
40253;DHT22;25972;51.854;4.534;2023-03-05T13:01:42;8.30;99.90
40253;DHT22;25972;51.854;4.534;2023-03-05T13:04:24;8.30;99.90
40253;DHT22;25972;51.854;4.534;2023-03-05T13:07:00;8.40;99.90
40253;DHT22;25972;51.854;4.534;2023-03-05T13:09:28;8.50;99.90
40253;DHT22;25972;51.854;4.534;2023-03-05T13:11:56;8.50;99.90
40253;DHT22;25972;51.854;4.534;2023-03-05T13:14:42;8.60;99.90
40253;DHT22;25972;51.854;4.534;2023-03-05T13:19:53;8.60;99.90
40253;DHT22;25972;51.854;4.534;2023-03-05T13:22:19;8.60;99.90
40253;DHT22;25972;51.854;4.534;2023-03-05T13:24:45;8.70;99.90
40253;DHT22;25972;51.854;4.534;2023-03-05T13:27:28;8.70;99.90
40253;DHT22;25972;51.854;4.534;2023-03-05T13:29:54;8.80;99.90
40253;DHT22;25972;51.854;4.534;2023-03-05T13:32:31;8.80;99.90
40253;DHT22;25972;51.854;4.534;2023-03-05T13:35:00;8.90;99.90
40253;DHT22;25972;51.854;4.534;2023-03-05T13:37:30;8.90;99.90
40253;DHT22;25972;51.854;4.534;2023-03-05T13:40:00;9.00;99.90
40253;DHT22;25972;51.854;4.534;2023-03-05T13:42:31;9.10;99.90
40253;DHT22;25972;51.854;4.534;2023-03-05T13:45:25;9.10;99.90
40253;DHT22;25972;51.854;4.534;2023-03-05T13:50:27;9.20;99.90
40253;DHT22;25972;51.854;4.534;2023-03-05T13:52:53;9.10;99.90
40253;DHT22;25972;51.854;4.534;2023-03-05T13:55:20;9.20;99.90
40253;DHT22;25972;51.854;4.534;2023-03-05T13:57:48;9.10;99.90
40253;DHT22;25972;51.854;4.534;2023-03-05T14:03:07;9.00;99.90
40253;DHT22;25972;51.854;4.534;2023-03-05T14:05:34;9.00;99.90
40253;DHT22;25972;51.854;4.534;2023-03-05T14:08:00;9.00;99.90
40253;DHT22;25972;51.854;4.534;2023-03-05T14:10:36;8.90;99.90
40253;DHT22;25972;51.854;4.534;2023-03-05T14:13:09;8.80;99.90
40253;DHT22;25972;51.854;4.534;2023-03-05T14:15:36;8.80;99.90
40253;DHT22;25972;51.854;4.534;2023-03-05T14:20:40;8.70;99.90
40253;DHT22;25972;51.854;4.534;2023-03-05T14:28:52;8.30;99.90
40253;DHT22;25972;51.854;4.534;2023-03-05T14:31:23;8.20;99.90
40253;DHT22;25972;51.854;4.534;2023-03-05T14:33:50;8.20;99.90
40253;DHT22;25972;51.854;4.534;2023-03-05T14:36:25;8.20;99.90
40253;DHT22;25972;51.854;4.534;2023-03-05T14:38:51;8.10;99.90
40253;DHT22;25972;51.854;4.534;2023-03-05T14:41:30;8.10;99.90
40253;DHT22;25972;51.854;4.534;2023-03-05T14:43:57;8.10;99.90
40253;DHT22;25972;51.854;4.534;2023-03-05T14:46:23;8.10;99.90
40253;DHT22;25972;51.854;4.534;2023-03-05T14:48:49;8.10;99.90
40253;DHT22;25972;51.854;4.534;2023-03-05T14:51:15;8.10;99.90
40253;DHT22;25972;51.854;4.534;2023-03-05T14:53:45;8.10;99.90
40253;DHT22;25972;51.854;4.534;2023-03-05T14:56:22;8.00;99.90
40253;DHT22;25972;51.854;4.534;2023-03-05T14:58:48;8.00;99.90
40253;DHT22;25972;51.854;4.534;2023-03-05T15:01:14;7.90;99.90
40253;DHT22;25972;51.854;4.534;2023-03-05T15:03:40;7.90;99.90
40253;DHT22;25972;51.854;4.534;2023-03-05T15:06:17;7.90;99.90
40253;DHT22;25972;51.854;4.534;2023-03-05T15:08:44;7.80;99.90
40253;DHT22;25972;51.854;4.534;2023-03-05T15:11:10;7.80;99.90
40253;DHT22;25972;51.854;4.534;2023-03-05T15:13:36;7.70;99.90
40253;DHT22;25972;51.854;4.534;2023-03-05T15:16:03;7.60;99.90
40253;DHT22;25972;51.854;4.534;2023-03-05T15:18:30;7.50;99.90
40253;DHT22;25972;51.854;4.534;2023-03-05T15:20:57;7.40;99.90
40253;DHT22;25972;51.854;4.534;2023-03-05T15:23:23;7.30;99.90
40253;DHT22;25972;51.854;4.534;2023-03-05T15:25:49;7.20;99.90
40253;DHT22;25972;51.854;4.534;2023-03-05T15:28:15;7.10;99.90
40253;DHT22;25972;51.854;4.534;2023-03-05T15:30:44;7.00;99.90
40253;DHT22;25972;51.854;4.534;2023-03-05T15:33:12;6.80;99.90
40253;DHT22;25972;51.854;4.534;2023-03-05T15:35:39;6.70;99.90
40253;DHT22;25972;51.854;4.534;2023-03-05T15:38:05;6.60;99.90
40253;DHT22;25972;51.854;4.534;2023-03-05T15:40:31;6.60;99.90
40253;DHT22;25972;51.854;4.534;2023-03-05T15:42:58;6.50;99.90
40253;DHT22;25972;51.854;4.534;2023-03-05T15:45:24;6.50;99.90
40253;DHT22;25972;51.854;4.534;2023-03-05T15:47:51;6.40;99.90
40253;DHT22;25972;51.854;4.534;2023-03-05T15:50:19;6.40;99.90
40253;DHT22;25972;51.854;4.534;2023-03-05T15:52:45;6.40;99.90
40253;DHT22;25972;51.854;4.534;2023-03-05T15:55:11;6.40;99.90
40253;DHT22;25972;51.854;4.534;2023-03-05T15:57:44;6.40;99.90
40253;DHT22;25972;51.854;4.534;2023-03-05T16:00:14;6.40;99.90
40253;DHT22;25972;51.854;4.534;2023-03-05T16:02:40;6.30;99.90
40253;DHT22;25972;51.854;4.534;2023-03-05T16:05:06;6.30;99.90
40253;DHT22;25972;51.854;4.534;2023-03-05T16:07:33;6.40;99.90
40253;DHT22;25972;51.854;4.534;2023-03-05T16:10:01;6.40;99.90
40253;DHT22;25972;51.854;4.534;2023-03-05T16:12:34;6.40;99.90
40253;DHT22;25972;51.854;4.534;2023-03-05T16:15:06;6.30;99.90
40253;DHT22;25972;51.854;4.534;2023-03-05T16:17:34;6.30;99.90
40253;DHT22;25972;51.854;4.534;2023-03-05T16:20:01;6.20;99.90
40253;DHT22;25972;51.854;4.534;2023-03-05T16:22:27;6.20;99.90
40253;DHT22;25972;51.854;4.534;2023-03-05T16:24:53;6.20;99.90
40253;DHT22;25972;51.854;4.534;2023-03-05T16:27:20;6.20;99.90
40253;DHT22;25972;51.854;4.534;2023-03-05T16:29:46;6.10;99.90
40253;DHT22;25972;51.854;4.534;2023-03-05T16:32:11;6.10;99.90
40253;DHT22;25972;51.854;4.534;2023-03-05T16:34:37;6.10;99.90
40253;DHT22;25972;51.854;4.534;2023-03-05T16:37:04;6.10;99.90
40253;DHT22;25972;51.854;4.534;2023-03-05T16:39:31;6.10;99.90
40253;DHT22;25972;51.854;4.534;2023-03-05T16:41:57;6.00;99.90
40253;DHT22;25972;51.854;4.534;2023-03-05T16:44:23;6.00;99.90
40253;DHT22;25972;51.854;4.534;2023-03-05T16:46:49;6.00;99.90
40253;DHT22;25972;51.854;4.534;2023-03-05T16:49:19;5.90;99.90
40253;DHT22;25972;51.854;4.534;2023-03-05T16:51:45;5.90;99.90
40253;DHT22;25972;51.854;4.534;2023-03-05T16:54:11;5.90;99.90
40253;DHT22;25972;51.854;4.534;2023-03-05T16:56:37;5.80;99.90
40253;DHT22;25972;51.854;4.534;2023-03-05T16:59:03;5.90;99.90
40253;DHT22;25972;51.854;4.534;2023-03-05T17:01:29;5.80;99.90
40253;DHT22;25972;51.854;4.534;2023-03-05T17:03:58;5.80;99.90
40253;DHT22;25972;51.854;4.534;2023-03-05T17:06:27;5.80;99.90
40253;DHT22;25972;51.854;4.534;2023-03-05T17:08:53;5.70;99.90
40253;DHT22;25972;51.854;4.534;2023-03-05T17:11:21;5.70;99.90